CheckWX is a tool to help pilots better visualize weather data.  It is not intended as a substitute for an official pre-flight weather briefing.

08:53:58 UTC

KMIB METAR
Minot AFB Airport
Minot, North Dakota, USA
Current

58 mins ago

KMIB 220756Z AUTO 27007KT 10SM SCT060 M17/M20 A3020 RMK AO2 SLP276 T11721200 $
Observed
Feb-22 @ 07:56 UTC
Wind
  • 270° at 7 KTS
Visibility
10 SM
Flight Rules
VFR
Cloud Levels
  • Scattered at 6,000' AGL
Temperature
-17°C / 1°F
Dewpoint
-20°C / -4°F
Humidity
78%
Altimeter
30.2" Hg
Pressure
1027.6 hPa
Previous

2 hours ago

KMIB 220656Z AUTO 29007KT 10SM OVC060 M16/M19 A3020 RMK AO2 SLP276 T11581187 $
Observed
Feb-22 @ 06:56 UTC
Wind
  • 290° at 7 KTS
Visibility
10 SM
Flight Rules
VFR
Cloud Levels
  • Overcast at 6,000' AGL
Temperature
-16°C / 3°F
Dewpoint
-19°C / -2°F
Humidity
78%
Altimeter
30.2" Hg
Pressure
1027.6 hPa
Previous

3 hours ago

KMIB 220556Z 29008KT 10SM OVC065 M16/M18 A3020 RMK AO2A SNB06E19SNB23E33 CIG 014V028 BKN V OVC SLP276 P0000 60000 T11561183 11152 21216 411301216 50009 $
Observed
Feb-22 @ 05:56 UTC
Wind
  • 290° at 8 KTS
Visibility
10 SM
Flight Rules
VFR
Cloud Levels
  • Overcast at 6,500' AGL
Temperature
-16°C / 3°F
Dewpoint
-18°C / -0°F
Humidity
85%
Altimeter
30.2" Hg
Pressure
1027.6 hPa
Current Rain
0.01"